Time;durP1;ratioP1;P1;durP2;ratioP2;P2;SDS_P1;SDS_P2;PMS_P1;PMS_P2;Temp;Humidity;BMP_temperature;BMP_pressure;BME280_temperature;BME280_humidity;BME280_pressure;Samples;Min_cycle;Max_cycle;Signal;HPM_P1;HPM_P2
2022/07/12 00:01:39;;;;;;;5.53;4.35;;;16.30;99.90;;;;;;4997091;28;20054;-89
2022/07/12 00:04:05;;;;;;;5.30;4.60;;;16.30;99.90;;;;;;4980742;28;20153;-90
2022/07/12 00:06:31;;;;;;;4.35;3.95;;;16.20;99.90;;;;;;4964154;28;20065;-90
2022/07/12 00:08:56;;;;;;;4.68;4.28;;;16.20;99.90;;;;;;4980278;28;20047;-88
2022/07/12 00:11:22;;;;;;;4.40;4.00;;;16.20;99.90;;;;;;4963962;28;20529;-89
2022/07/12 00:13:48;;;;;;;4.85;4.20;;;16.20;99.90;;;;;;4979961;28;20061;-89
2022/07/12 00:16:13;;;;;;;4.55;4.15;;;16.20;99.90;;;;;;4980132;28;20050;-89
2022/07/12 00:18:39;;;;;;;5.78;4.20;;;16.10;99.90;;;;;;4965698;28;20116;-89
2022/07/12 00:21:05;;;;;;;4.80;4.28;;;16.10;99.90;;;;;;4980512;28;20047;-89
2022/07/12 00:23:31;;;;;;;5.38;4.28;;;16.10;99.90;;;;;;4981598;28;20114;-90
2022/07/12 00:25:56;;;;;;;6.18;4.20;;;16.10;99.90;;;;;;4996395;28;20121;-89
2022/07/12 00:28:22;;;;;;;4.60;4.20;;;16.00;99.90;;;;;;4996917;28;20050;-89
2022/07/12 00:30:47;;;;;;;5.80;4.32;;;15.90;99.90;;;;;;4981146;28;20085;-90
2022/07/12 00:33:13;;;;;;;5.20;4.20;;;15.90;99.90;;;;;;4963905;28;20057;-88
2022/07/12 00:35:39;;;;;;;4.57;3.83;;;15.80;99.90;;;;;;4980648;28;20042;-90
2022/07/12 00:38:04;;;;;;;5.82;3.50;;;15.70;99.90;;;;;;4980168;28;20046;-88
2022/07/12 00:40:30;;;;;;;4.53;3.40;;;15.70;99.90;;;;;;4996054;28;20081;-90
2022/07/12 00:42:57;;;;;;;4.10;3.63;;;15.70;99.90;;;;;;4979673;28;20053;-88
2022/07/12 00:45:22;;;;;;;4.97;4.18;;;15.70;99.90;;;;;;4979661;28;20384;-89
2022/07/12 00:47:49;;;;;;;5.45;4.05;;;15.60;99.90;;;;;;4980481;28;20056;-90
2022/07/12 00:50:20;;;;;;;4.30;3.90;;;15.60;99.90;;;;;;4999270;28;20042;-90
2022/07/12 00:52:47;;;;;;;3.75;3.45;;;15.60;99.90;;;;;;4999237;28;20034;-92
2022/07/12 00:55:13;;;;;;;4.15;3.75;;;15.60;99.90;;;;;;4986766;28;20030;-89
2022/07/12 00:57:39;;;;;;;6.57;3.42;;;15.50;99.90;;;;;;4973728;28;20100;-89
2022/07/12 01:00:07;;;;;;;4.63;3.90;;;15.50;99.90;;;;;;4980282;28;20038;-88
2022/07/12 01:02:35;;;;;;;4.95;4.45;;;15.50;99.90;;;;;;4964400;28;20064;-88
2022/07/12 01:05:03;;;;;;;6.50;5.53;;;15.50;99.90;;;;;;4979697;28;20132;-89
2022/07/12 01:07:29;;;;;;;8.48;6.22;;;15.50;99.90;;;;;;4979715;28;20054;-89
2022/07/12 01:09:55;;;;;;;6.20;5.60;;;15.60;99.90;;;;;;4979665;28;20457;-90
2022/07/12 01:12:21;;;;;;;5.88;5.10;;;15.50;99.90;;;;;;4979310;28;20038;-90
2022/07/12 01:14:47;;;;;;;6.95;5.13;;;15.50;99.90;;;;;;4979360;28;20393;-89
2022/07/12 01:17:13;;;;;;;5.60;5.10;;;15.40;99.90;;;;;;4963622;28;20056;-91
2022/07/12 01:19:39;;;;;;;5.78;4.60;;;15.30;99.90;;;;;;4963314;28;20489;-90
2022/07/12 01:22:09;;;;;;;5.35;4.85;;;15.30;99.90;;;;;;4978894;28;20446;-89
2022/07/12 01:24:36;;;;;;;6.35;4.97;;;15.30;99.90;;;;;;4979127;28;20058;-89
2022/07/12 01:27:03;;;;;;;5.20;4.57;;;15.20;99.90;;;;;;4994405;28;20046;-89
2022/07/12 01:29:29;;;;;;;4.70;4.22;;;15.10;99.90;;;;;;4978451;28;20137;-90
2022/07/12 01:31:54;;;;;;;5.35;4.43;;;15.00;99.90;;;;;;4962038;28;20129;-91
2022/07/12 01:34:20;;;;;;;8.20;4.70;;;15.00;99.90;;;;;;4963313;28;20038;-88
2022/07/12 01:36:46;;;;;;;4.28;3.80;;;14.90;99.90;;;;;;4979763;28;20054;-89
2022/07/12 01:39:12;;;;;;;4.32;3.78;;;14.80;99.90;;;;;;4979198;28;20054;-89
2022/07/12 01:41:37;;;;;;;3.95;3.65;;;14.80;99.90;;;;;;4962693;28;20086;-89
2022/07/12 01:44:03;;;;;;;3.92;3.38;;;14.80;99.90;;;;;;4978709;28;20046;-89
2022/07/12 01:46:29;;;;;;;4.85;4.03;;;14.80;99.90;;;;;;4994327;28;20050;-90
2022/07/12 01:48:54;;;;;;;4.65;4.18;;;14.70;99.90;;;;;;4978531;28;20382;-89
2022/07/12 01:51:20;;;;;;;4.10;3.70;;;14.70;99.90;;;;;;4978375;28;20042;-90
2022/07/12 01:53:46;;;;;;;5.10;4.60;;;14.70;99.90;;;;;;4978938;28;20049;-90
2022/07/12 01:56:11;;;;;;;4.50;4.10;;;14.70;99.90;;;;;;4978347;28;20046;-88
2022/07/12 01:58:37;;;;;;;3.45;3.15;;;14.70;99.90;;;;;;4977914;28;20053;-88
2022/07/12 02:01:03;;;;;;;4.68;3.45;;;14.60;99.90;;;;;;4978251;28;20181;-90
2022/07/12 02:03:28;;;;;;;4.68;3.75;;;14.70;99.90;;;;;;4978916;28;20042;-89
2022/07/12 02:05:54;;;;;;;4.47;4.00;;;14.70;99.90;;;;;;4978387;28;20038;-88
2022/07/12 02:08:20;;;;;;;4.50;3.90;;;14.70;99.90;;;;;;4994551;28;20043;-89
2022/07/12 02:10:45;;;;;;;5.65;3.70;;;14.70;99.90;;;;;;4962127;28;20047;-88
2022/07/12 02:13:11;;;;;;;5.65;4.05;;;14.80;99.90;;;;;;4990139;28;20039;-90
2022/07/12 02:15:36;;;;;;;7.35;4.30;;;14.80;99.90;;;;;;4997407;28;20077;-92
2022/07/12 02:18:02;;;;;;;5.25;4.20;;;14.80;99.90;;;;;;5001507;28;20042;-92
2022/07/12 02:20:28;;;;;;;5.03;4.00;;;14.80;99.90;;;;;;4994097;28;20054;-88
2022/07/12 02:22:54;;;;;;;7.85;4.28;;;14.80;99.90;;;;;;4981686;28;20142;-89
2022/07/12 02:25:19;;;;;;;4.65;4.07;;;14.70;99.90;;;;;;4981805;28;20082;-88
2022/07/12 02:27:45;;;;;;;4.38;3.97;;;14.70;99.90;;;;;;4966001;28;20050;-88
2022/07/12 02:30:11;;;;;;;4.88;4.00;;;14.70;99.90;;;;;;4967527;28;20053;-89
2022/07/12 02:32:37;;;;;;;5.38;4.18;;;14.70;99.90;;;;;;4982158;28;20038;-89
2022/07/12 02:35:04;;;;;;;4.65;4.18;;;14.60;99.90;;;;;;4965173;28;20096;-90
2022/07/12 02:37:30;;;;;;;4.25;3.85;;;14.60;99.90;;;;;;4980069;28;20042;-89
2022/07/12 02:42:43;;;;;;;4.07;3.63;;;14.40;99.90;;;;;;4980287;28;20409;-89
2022/07/12 02:45:09;;;;;;;3.72;3.40;;;14.40;99.90;;;;;;4978632;28;20137;-90
2022/07/12 02:47:39;;;;;;;7.10;3.28;;;14.30;99.90;;;;;;4977941;28;20050;-89
2022/07/12 02:50:06;;;;;;;4.60;4.13;;;14.20;99.90;;;;;;4977903;28;20132;-88
2022/07/12 02:52:31;;;;;;;4.03;3.63;;;14.20;99.90;;;;;;4961275;28;20042;-88
2022/07/12 02:54:57;;;;;;;4.80;3.63;;;14.10;99.90;;;;;;4994125;28;20053;-90
2022/07/12 02:57:23;;;;;;;4.70;4.03;;;14.10;99.90;;;;;;4977812;28;20053;-88
2022/07/12 02:59:48;;;;;;;4.20;3.60;;;14.00;99.90;;;;;;4998006;28;20121;-89
2022/07/12 03:02:15;;;;;;;3.72;3.42;;;14.00;99.90;;;;;;4981937;28;20054;-87
2022/07/12 03:04:40;;;;;;;4.93;3.88;;;13.90;99.90;;;;;;4997360;28;20137;-88
2022/07/12 03:07:06;;;;;;;4.85;4.05;;;12.90;99.90;;;;;;4981503;28;20047;-89
2022/07/12 03:09:32;;;;;;;3.78;3.33;;;13.80;99.90;;;;;;4982559;28;20049;-89
2022/07/12 03:11:57;;;;;;;4.95;3.85;;;13.80;99.90;;;;;;4965298;28;20050;-88
2022/07/12 03:14:23;;;;;;;3.58;3.28;;;13.70;99.90;;;;;;4981169;28;20038;-88
2022/07/12 03:16:49;;;;;;;4.18;3.78;;;13.70;99.90;;;;;;4981355;28;20177;-87
2022/07/12 03:19:15;;;;;;;4.05;3.65;;;13.70;99.90;;;;;;4984218;28;20046;-89
2022/07/12 03:21:40;;;;;;;4.20;3.80;;;13.70;99.90;;;;;;4968145;28;20457;-89
2022/07/12 03:24:06;;;;;;;3.60;3.30;;;13.60;99.90;;;;;;4985294;28;20092;-88
2022/07/12 03:26:32;;;;;;;3.80;3.38;;;13.60;99.90;;;;;;4968366;28;20050;-89
2022/07/12 03:29:00;;;;;;;3.75;3.38;;;13.60;99.90;;;;;;4969006;28;20053;-89
2022/07/12 03:31:27;;;;;;;3.67;3.22;;;13.50;99.90;;;;;;4985401;28;20041;-88
2022/07/12 03:33:52;;;;;;;4.72;3.97;;;13.50;99.90;;;;;;4968234;28;20050;-88
2022/07/12 03:36:18;;;;;;;4.07;3.45;;;13.50;99.90;;;;;;4993403;28;20096;-87
2022/07/12 03:38:44;;;;;;;4.07;3.50;;;13.40;99.90;;;;;;4964716;28;20038;-89
2022/07/12 03:41:10;;;;;;;4.82;3.35;;;13.40;99.90;;;;;;5007029;28;20034;-91
2022/07/12 03:43:35;;;;;;;3.33;2.80;;;13.40;99.90;;;;;;4987479;28;20045;-89
2022/07/12 03:46:01;;;;;;;3.88;3.47;;;13.30;99.90;;;;;;4968134;28;20044;-88
2022/07/12 03:48:27;;;;;;;5.00;3.13;;;13.30;99.90;;;;;;5000435;28;20085;-89
2022/07/12 03:50:53;;;;;;;5.25;3.78;;;13.30;99.90;;;;;;4984072;28;20053;-88
2022/07/12 03:53:19;;;;;;;4.28;3.47;;;13.40;99.90;;;;;;4985026;28;20078;-89
2022/07/12 03:55:44;;;;;;;4.13;3.33;;;13.50;99.90;;;;;;4983958;28;20092;-88
2022/07/12 03:58:10;;;;;;;4.82;3.63;;;13.60;99.90;;;;;;4983974;28;20072;-89
2022/07/12 04:00:36;;;;;;;4.60;3.42;;;13.70;99.90;;;;;;4984411;28;20038;-89
2022/07/12 04:03:01;;;;;;;3.20;2.90;;;13.80;99.90;;;;;;4968702;28;20097;-88
2022/07/12 04:05:27;;;;;;;2.80;2.60;;;13.80;99.90;;;;;;4982993;28;20180;-88
2022/07/12 04:07:53;;;;;;;4.38;3.15;;;13.90;99.90;;;;;;4983987;28;20056;-88
2022/07/12 04:10:20;;;;;;;3.53;3.22;;;14.00;99.90;;;;;;4983567;28;20072;-89
2022/07/12 04:12:46;;;;;;;3.95;3.50;;;14.10;99.90;;;;;;4968397;28;20046;-88
2022/07/12 04:15:15;;;;;;;3.20;2.90;;;14.30;99.90;;;;;;4984193;28;20050;-90
2022/07/12 04:17:40;;;;;;;3.47;2.92;;;14.30;99.90;;;;;;4968206;28;20060;-89
2022/07/12 04:20:07;;;;;;;3.20;2.90;;;14.30;99.90;;;;;;4966923;28;20482;-89
2022/07/12 04:22:33;;;;;;;4.00;3.58;;;14.40;99.90;;;;;;4983505;28;20529;-89
2022/07/12 04:24:59;;;;;;;3.92;3.53;;;14.40;99.90;;;;;;4983376;28;20124;-88
2022/07/12 04:27:26;;;;;;;4.18;3.10;;;14.40;99.90;;;;;;5000102;28;20050;-88
2022/07/12 04:29:52;;;;;;;3.20;2.85;;;14.40;99.90;;;;;;4999637;28;20080;-92
2022/07/12 04:32:18;;;;;;;3.30;2.83;;;14.40;99.90;;;;;;4983206;28;20109;-89
2022/07/12 04:34:43;;;;;;;4.05;3.38;;;14.30;99.90;;;;;;4983451;28;20054;-88
2022/07/12 04:37:09;;;;;;;4.43;3.50;;;14.40;99.90;;;;;;4951655;28;20054;-90
2022/07/12 04:39:35;;;;;;;4.25;3.65;;;14.50;99.90;;;;;;4999092;28;20053;-91
2022/07/12 04:42:01;;;;;;;5.13;3.85;;;14.60;99.90;;;;;;4966866;28;20053;-89
2022/07/12 04:44:27;;;;;;;4.78;4.28;;;14.70;99.90;;;;;;4983628;28;20049;-90
2022/07/12 04:46:52;;;;;;;5.40;4.10;;;14.90;99.90;;;;;;4951123;28;20474;-91
2022/07/12 04:49:18;;;;;;;4.45;4.00;;;15.60;99.90;;;;;;4999020;28;20092;-91
2022/07/12 04:51:44;;;;;;;4.50;4.10;;;16.50;99.90;;;;;;4999542;28;20096;-88
2022/07/12 04:54:10;;;;;;;3.53;3.10;;;17.20;99.90;;;;;;4983322;28;20116;-88
2022/07/12 04:56:36;;;;;;;2.80;2.60;;;17.50;99.90;;;;;;4999314;28;20041;-90
2022/07/12 04:59:02;;;;;;;3.13;2.85;;;17.80;99.90;;;;;;5008463;28;20069;-90
2022/07/12 05:01:32;;;;;;;3.67;2.75;;;18.40;99.90;;;;;;4998961;28;20057;-89
2022/07/12 05:03:58;;;;;;;3.05;2.75;;;18.80;99.90;;;;;;5022160;28;20042;-92
2022/07/12 05:06:24;;;;;;;5.18;3.08;;;19.40;99.90;;;;;;4997994;28;20549;-88
2022/07/12 05:08:50;;;;;;;3.50;3.17;;;19.90;99.90;;;;;;4998516;28;20097;-89
2022/07/12 05:11:15;;;;;;;3.55;3.10;;;20.50;99.90;;;;;;4998473;28;20045;-88
2022/07/12 05:13:41;;;;;;;3.40;3.13;;;20.80;99.90;;;;;;4999314;28;20046;-91
2022/07/12 05:16:08;;;;;;;3.60;3.30;;;21.40;99.90;;;;;;4983079;28;20407;-89
2022/07/12 05:18:33;;;;;;;3.38;3.08;;;21.50;99.90;;;;;;4982306;28;20050;-87
2022/07/12 05:20:59;;;;;;;3.60;3.30;;;21.40;99.90;;;;;;4980707;28;20058;-88
2022/07/12 05:23:25;;;;;;;3.20;2.90;;;20.90;99.90;;;;;;4949636;28;20468;-88
2022/07/12 05:25:51;;;;;;;3.30;2.80;;;20.40;99.90;;;;;;4982140;28;20076;-87
2022/07/12 05:28:16;;;;;;;3.33;3.10;;;19.90;99.90;;;;;;4966686;28;20470;-90
2022/07/12 05:30:43;;;;;;;3.38;3.15;;;19.20;99.90;;;;;;4966384;28;20466;-89
2022/07/12 05:33:09;;;;;;;4.30;3.70;;;18.60;99.90;;;;;;4949650;28;20056;-88
2022/07/12 05:35:34;;;;;;;4.05;3.65;;;18.30;99.90;;;;;;4982474;28;20462;-89
2022/07/12 05:38:01;;;;;;;3.97;3.58;;;18.30;99.90;;;;;;4981713;28;20046;-88
2022/07/12 05:40:26;;;;;;;3.72;3.42;;;18.50;99.90;;;;;;4950004;28;20054;-87
2022/07/12 05:42:52;;;;;;;3.10;2.90;;;19.10;99.90;;;;;;4998637;28;20042;-89
2022/07/12 05:45:18;;;;;;;3.78;3.47;;;19.80;99.90;;;;;;4982088;28;20092;-89
2022/07/12 05:47:43;;;;;;;4.00;3.65;;;20.10;99.90;;;;;;4998821;28;20242;-89
2022/07/12 05:50:09;;;;;;;3.88;3.58;;;20.30;99.90;;;;;;4981677;28;20046;-89
2022/07/12 05:55:19;;;;;;;4.03;3.72;;;21.90;99.90;;;;;;4970988;28;20053;-88
2022/07/12 05:57:45;;;;;;;4.63;4.22;;;21.80;99.90;;;;;;4982012;28;20046;-88
2022/07/12 06:00:11;;;;;;;4.18;3.78;;;21.00;99.90;;;;;;4981168;28;20049;-89
2022/07/12 06:02:37;;;;;;;4.50;4.10;;;20.60;99.90;;;;;;4997471;28;20528;-88
2022/07/12 06:05:02;;;;;;;4.72;4.32;;;20.20;99.90;;;;;;4997527;28;20081;-88
2022/07/12 06:07:28;;;;;;;4.50;4.15;;;19.80;99.90;;;;;;4998101;28;20042;-88
2022/07/12 06:09:54;;;;;;;4.50;4.10;;;19.30;99.90;;;;;;4948694;28;20409;-88
2022/07/12 06:12:20;;;;;;;5.05;4.55;;;19.50;99.90;;;;;;4950040;28;20065;-87
2022/07/12 06:14:45;;;;;;;4.80;4.30;;;19.50;99.90;;;;;;4949548;28;20045;-86
2022/07/12 06:17:11;;;;;;;5.50;5.00;;;20.00;99.90;;;;;;4998246;28;20042;-88
2022/07/12 06:19:37;;;;;;;8.75;5.15;;;20.10;99.90;;;;;;4997490;28;20552;-88
2022/07/12 06:22:02;;;;;;;5.53;5.03;;;19.70;99.90;;;;;;4996082;28;20057;-87
2022/07/12 06:24:28;;;;;;;4.85;4.45;;;19.70;99.90;;;;;;4964256;28;20038;-89
2022/07/12 06:26:54;;;;;;;5.22;4.72;;;19.90;99.90;;;;;;4964007;28;20101;-87
2022/07/12 06:29:19;;;;;;;4.90;4.50;;;20.00;99.90;;;;;;4995925;28;20474;-89
2022/07/12 06:31:45;;;;;;;6.03;4.68;;;19.90;99.90;;;;;;4995470;28;20116;-87
2022/07/12 06:34:11;;;;;;;4.80;4.40;;;20.10;99.90;;;;;;4979858;28;20050;-88
2022/07/12 06:36:36;;;;;;;5.32;4.35;;;20.20;99.90;;;;;;4979809;28;20132;-86
2022/07/12 06:39:02;;;;;;;5.00;4.60;;;20.30;99.90;;;;;;4980301;28;20054;-87
2022/07/12 06:41:29;;;;;;;4.65;4.25;;;20.40;99.90;;;;;;4980017;28;20053;-85
2022/07/12 06:43:55;;;;;;;5.47;4.97;;;20.40;99.90;;;;;;4979772;28;20394;-87
2022/07/12 06:46:20;;;;;;;5.00;4.60;;;20.50;99.90;;;;;;4996120;28;20069;-85
2022/07/12 06:48:46;;;;;;;5.03;4.63;;;20.70;99.90;;;;;;4996488;28;20472;-87
2022/07/12 06:51:12;;;;;;;5.00;4.50;;;20.80;99.90;;;;;;4963705;28;20132;-86
2022/07/12 06:53:37;;;;;;;4.82;4.30;;;21.20;99.90;;;;;;4979886;28;20042;-88
2022/07/12 06:56:03;;;;;;;5.13;4.72;;;21.30;99.90;;;;;;4980585;28;20482;-87
2022/07/12 06:58:29;;;;;;;4.38;3.97;;;21.10;99.90;;;;;;4963494;28;20441;-88
2022/07/12 07:00:55;;;;;;;4.85;4.45;;;20.90;99.90;;;;;;4997061;28;20437;-88
2022/07/12 07:03:20;;;;;;;5.05;4.65;;;21.50;99.90;;;;;;4979775;28;20053;-88
2022/07/12 07:05:46;;;;;;;4.70;4.32;;;22.00;99.90;;;;;;4996444;28;20042;-87
2022/07/12 07:08:11;;;;;;;5.63;4.47;;;22.20;99.90;;;;;;4964407;28;20038;-88
2022/07/12 07:10:37;;;;;;;4.13;3.83;;;22.00;99.90;;;;;;4996380;28;20482;-88
2022/07/12 07:13:03;;;;;;;5.05;4.18;;;21.70;99.90;;;;;;4995584;28;20128;-87
2022/07/12 07:15:28;;;;;;;4.55;4.25;;;22.50;99.90;;;;;;4948196;28;20548;-88
2022/07/12 07:17:54;;;;;;;4.45;4.05;;;22.80;99.90;;;;;;4981734;28;20140;-87
2022/07/12 07:20:20;;;;;;;4.93;4.53;;;23.10;99.90;;;;;;4980718;28;20112;-87
2022/07/12 07:22:46;;;;;;;4.80;4.40;;;23.50;99.90;;;;;;4998277;28;20056;-88
2022/07/12 07:25:12;;;;;;;3.70;3.40;;;23.60;99.90;;;;;;4979760;28;20124;-87
2022/07/12 07:27:38;;;;;;;4.68;4.30;;;23.40;99.90;;;;;;4981665;28;20085;-87
2022/07/12 07:32:49;;;;;;;3.00;2.80;;;23.50;99.90;;;;;;4995574;28;20490;-87
2022/07/12 07:35:15;;;;;;;3.33;3.03;;;23.40;99.90;;;;;;4995879;28;20100;-87
2022/07/12 07:37:40;;;;;;;2.75;2.55;;;24.00;99.90;;;;;;4979733;28;20057;-88
2022/07/12 07:40:06;;;;;;;2.97;2.78;;;24.20;99.90;;;;;;4996332;28;20501;-88
2022/07/12 07:42:32;;;;;;;3.33;3.03;;;24.60;99.90;;;;;;4981815;28;20050;-89
2022/07/12 07:44:58;;;;;;;3.67;3.35;;;25.10;99.90;;;;;;4983397;28;20049;-89
2022/07/12 07:47:23;;;;;;;4.10;3.33;;;25.50;99.90;;;;;;5001648;28;20045;-88
2022/07/12 07:49:49;;;;;;;2.67;2.50;;;25.30;99.90;;;;;;4968491;28;20188;-87
2022/07/12 07:52:15;;;;;;;3.58;3.28;;;26.60;99.90;;;;;;4999212;28;20046;-87
2022/07/12 07:54:40;;;;;;;3.20;3.00;;;26.00;99.90;;;;;;4983374;28;20123;-88
2022/07/12 07:57:06;;;;;;;3.25;2.97;;;26.10;99.90;;;;;;4968508;28;20042;-87
2022/07/12 07:59:32;;;;;;;2.75;2.55;;;26.20;99.90;;;;;;4999748;28;20072;-88
2022/07/12 08:01:57;;;;;;;3.25;3.03;;;26.30;99.90;;;;;;4999499;28;20048;-88
2022/07/12 08:04:23;;;;;;;2.97;2.78;;;26.50;99.90;;;;;;4983450;28;20134;-87
2022/07/12 08:06:49;;;;;;;3.00;2.80;;;26.00;99.90;;;;;;4966963;28;20057;-88
2022/07/12 08:09:15;;;;;;;3.30;3.03;;;26.90;99.90;;;;;;4967455;28;20553;-88
2022/07/12 08:11:41;;;;;;;3.40;3.10;;;26.30;99.90;;;;;;4998985;28;20050;-87
2022/07/12 08:14:06;;;;;;;3.45;3.00;;;26.10;99.90;;;;;;4998671;28;20049;-88
2022/07/12 08:16:33;;;;;;;3.30;3.00;;;26.30;99.90;;;;;;4966658;28;20437;-88
2022/07/12 08:18:59;;;;;;;3.50;3.20;;;26.70;99.90;;;;;;4950960;28;20049;-89
2022/07/12 08:21:24;;;;;;;3.13;2.83;;;26.80;99.90;;;;;;4951143;28;20046;-88
2022/07/12 08:23:50;;;;;;;3.20;3.00;;;27.20;99.90;;;;;;4998554;28;20104;-87
2022/07/12 08:26:16;;;;;;;4.13;2.97;;;27.30;99.90;;;;;;4982172;28;20042;-89
2022/07/12 08:28:42;;;;;;;4.70;2.88;;;27.40;99.90;;;;;;4981854;28;20441;-89
2022/07/12 08:31:08;;;;;;;3.58;3.30;;;27.90;99.90;;;;;;4981731;28;20099;-89
2022/07/12 08:33:33;;;;;;;2.80;2.60;;;27.80;99.90;;;;;;4982640;28;20061;-89
2022/07/12 08:35:59;;;;;;;3.42;3.13;;;27.60;99.90;;;;;;4982712;28;20487;-88
2022/07/12 08:38:24;;;;;;;2.58;2.38;;;27.50;99.90;;;;;;4966170;28;20049;-88
2022/07/12 08:40:50;;;;;;;4.10;2.75;;;27.50;99.90;;;;;;4984897;28;20050;-89
2022/07/12 08:43:16;;;;;;;4.47;2.80;;;27.30;99.90;;;;;;4982251;28;20085;-90
2022/07/12 08:45:41;;;;;;;2.90;2.70;;;26.80;99.90;;;;;;4965736;28;20046;-87
2022/07/12 08:48:07;;;;;;;2.42;2.30;;;27.10;99.90;;;;;;4981674;28;20148;-86
2022/07/12 08:50:33;;;;;;;2.75;2.55;;;26.50;99.90;;;;;;4966041;28;20046;-87
2022/07/12 08:52:59;;;;;;;2.65;2.25;;;26.10;99.90;;;;;;4981046;28;20446;-86
2022/07/12 08:55:30;;;;;;;1.90;1.80;;;26.50;99.90;;;;;;4981943;28;20049;-86
2022/07/12 08:57:57;;;;;;;2.78;2.38;;;27.40;99.90;;;;;;4981908;28;20050;-88
2022/07/12 09:00:23;;;;;;;2.38;2.25;;;27.10;99.90;;;;;;4982134;28;20077;-88
2022/07/12 09:02:48;;;;;;;2.47;2.28;;;27.10;99.90;;;;;;4966244;28;20061;-92
2022/07/12 09:05:15;;;;;;;2.50;2.33;;;27.10;99.90;;;;;;4997925;28;20367;-88
2022/07/12 09:07:41;;;;;;;3.13;2.60;;;27.00;99.90;;;;;;4965497;28;20057;-86
2022/07/12 09:10:08;;;;;;;2.53;2.33;;;26.50;99.90;;;;;;4965478;28;20046;-86
2022/07/12 09:12:34;;;;;;;2.50;2.40;;;26.70;99.90;;;;;;4981270;28;20398;-86
2022/07/12 09:15:12;;;;;;;2.50;2.30;;;26.60;99.90;;;;;;4964922;28;20046;-88
2022/07/12 09:17:39;;;;;;;2.00;1.90;;;26.90;99.90;;;;;;4997336;28;20048;-88
2022/07/12 09:20:05;;;;;;;2.40;2.20;;;27.00;99.90;;;;;;4965248;28;20054;-87
2022/07/12 09:22:31;;;;;;;1.83;1.73;;;27.20;99.90;;;;;;4981413;28;20052;-88
2022/07/12 09:24:56;;;;;;;2.40;2.05;;;27.20;99.90;;;;;;4981917;28;20108;-88
2022/07/12 09:27:26;;;;;;;1.92;1.80;;;27.20;99.90;;;;;;4965949;28;20064;-87
2022/07/12 09:29:52;;;;;;;1.95;1.73;;;27.50;99.90;;;;;;4981575;28;20048;-87
2022/07/12 09:37:46;;;;;;;2.05;1.95;;;28.20;99.90;;;;;;4983271;28;20054;-87
2022/07/12 09:40:12;;;;;;;1.45;1.35;;;28.40;99.90;;;;;;4964904;28;20141;-87
2022/07/12 09:42:41;;;;;;;1.40;1.30;;;28.50;99.90;;;;;;4997242;28;20057;-86
2022/07/12 09:45:09;;;;;;;1.60;1.50;;;28.10;99.90;;;;;;4965609;28;20053;-88
2022/07/12 09:47:35;;;;;;;1.95;1.75;;;27.90;99.90;;;;;;4981248;28;20095;-86
2022/07/12 09:50:00;;;;;;;1.80;1.70;;;27.60;99.90;;;;;;4981378;28;20124;-87
2022/07/12 09:52:26;;;;;;;2.28;1.80;;;28.10;99.90;;;;;;4980656;28;20184;-88
2022/07/12 09:54:53;;;;;;;1.75;1.60;;;27.30;99.90;;;;;;4980689;28;20046;-89
2022/07/12 09:57:32;;;;;;;1.67;1.38;;;27.70;99.90;;;;;;4964288;28;20160;-86
2022/07/12 09:59:58;;;;;;;1.52;1.42;;;28.20;99.90;;;;;;4980509;28;20371;-88
2022/07/12 10:02:24;;;;;;;1.50;1.40;;;28.30;99.90;;;;;;4980216;28;20054;-86
2022/07/12 10:04:50;;;;;;;1.20;1.10;;;28.40;99.90;;;;;;4949095;28;20454;-87
2022/07/12 10:07:16;;;;;;;1.70;1.45;;;28.60;99.90;;;;;;4947636;28;20076;-89
2022/07/12 10:09:43;;;;;;;1.60;1.50;;;28.70;99.90;;;;;;4980349;28;20541;-86
2022/07/12 10:12:10;;;;;;;1.77;1.55;;;28.70;99.90;;;;;;4964878;28;20060;-88
2022/07/12 10:14:38;;;;;;;1.60;1.50;;;28.50;99.90;;;;;;4980099;28;20056;-88
2022/07/12 10:17:09;;;;;;;1.50;1.40;;;28.60;99.90;;;;;;4964422;28;20083;-89
2022/07/12 10:19:35;;;;;;;1.60;1.20;;;28.40;99.90;;;;;;4965632;28;20050;-86
2022/07/12 10:22:06;;;;;;;2.28;1.55;;;28.60;99.90;;;;;;4964291;28;20060;-90
2022/07/12 10:24:47;;;;;;;1.48;1.38;;;29.00;99.90;;;;;;4964757;28;20077;-89
2022/07/12 10:27:13;;;;;;;1.25;1.15;;;29.50;99.90;;;;;;4979579;28;20501;-90
2022/07/12 10:29:42;;;;;;;1.30;1.20;;;28.70;99.90;;;;;;4980217;28;20057;-89
2022/07/12 10:32:26;;;;;;;1.40;1.35;;;28.90;99.90;;;;;;4965238;28;20049;-90
2022/07/12 10:34:58;;;;;;;;;;;29.10;99.90;;;;;;4965016;28;20042;-90
2022/07/12 10:37:24;;;;;;;3.65;1.75;;;28.60;99.90;;;;;;4996518;28;19926;-89
2022/07/12 10:40:12;;;;;;;1.17;1.17;;;28.00;99.90;;;;;;4996366;28;20057;-89
2022/07/12 10:42:38;;;;;;;1.10;1.00;;;27.80;99.90;;;;;;4980060;28;20410;-90
2022/07/12 10:45:14;;;;;;;1.30;1.30;;;27.90;99.90;;;;;;4996297;28;20045;-90
2022/07/12 10:48:00;;;;;;;1.60;1.50;;;27.90;99.90;;;;;;4964321;28;20185;-90
2022/07/12 10:51:00;;;;;;;1.60;1.50;;;28.50;99.90;;;;;;4964800;28;20116;-90
2022/07/12 10:53:40;;;;;;;1.50;1.40;;;28.80;99.90;;;;;;4995797;28;20057;-87
2022/07/12 10:56:17;;;;;;;1.30;1.20;;;28.90;99.90;;;;;;4995369;28;20072;-88
2022/07/12 10:59:01;;;;;;;1.77;1.05;;;28.90;99.90;;;;;;4965040;28;20128;-89
2022/07/12 11:01:31;;;;;;;1.33;1.23;;;29.10;99.90;;;;;;4980756;28;20050;-89
2022/07/12 11:04:04;;;;;;;1.10;1.10;;;29.20;99.90;;;;;;4964222;28;20058;-88
2022/07/12 11:06:30;;;;;;;1.30;1.20;;;29.40;99.90;;;;;;4964044;28;20038;-89
2022/07/12 11:09:01;;;;;;;1.30;1.20;;;29.30;99.90;;;;;;4980941;28;20049;-89
2022/07/12 11:11:43;;;;;;;1.00;1.00;;;29.40;99.90;;;;;;4981129;28;20078;-89
2022/07/12 11:14:09;;;;;;;1.10;1.05;;;29.30;99.90;;;;;;4981542;28;20053;-89
2022/07/12 11:16:42;;;;;;;1.10;1.10;;;29.40;99.90;;;;;;4981680;28;20049;-88
2022/07/12 11:19:08;;;;;;;1.20;1.10;;;29.60;99.90;;;;;;4966547;28;20104;-90
2022/07/12 11:21:37;;;;;;;1.30;1.20;;;29.60;99.90;;;;;;4984051;28;20054;-89
2022/07/12 11:24:15;;;;;;;1.30;1.20;;;29.50;99.90;;;;;;4952800;28;20050;-89
2022/07/12 11:26:40;;;;;;;1.40;1.30;;;28.90;99.90;;;;;;5000442;28;20056;-88
2022/07/12 11:29:06;;;;;;;1.52;1.20;;;28.60;99.90;;;;;;4952128;28;20045;-92
2022/07/12 11:31:32;;;;;;;1.50;1.40;;;28.60;99.90;;;;;;4968484;28;20133;-89
2022/07/12 11:33:58;;;;;;;1.65;1.55;;;28.80;99.90;;;;;;4983559;28;20493;-88
2022/07/12 11:36:25;;;;;;;1.08;1.08;;;29.00;99.90;;;;;;4967858;28;20046;-88
2022/07/12 11:38:51;;;;;;;1.30;1.20;;;29.00;99.90;;;;;;4954626;28;20046;-83
2022/07/12 11:41:16;;;;;;;2.05;1.20;;;28.90;99.90;;;;;;4983973;28;20413;-87
2022/07/12 11:43:42;;;;;;;1.95;1.00;;;28.80;99.90;;;;;;5000013;28;20056;-87
2022/07/12 11:46:09;;;;;;;1.23;1.00;;;28.60;99.90;;;;;;4982689;28;20045;-87
2022/07/12 11:48:35;;;;;;;1.00;1.00;;;28.50;99.90;;;;;;4966875;28;20057;-88
2022/07/12 11:51:03;;;;;;;6.70;2.85;;;28.30;99.90;;;;;;4982968;28;20065;-88
2022/07/12 11:53:29;;;;;;;0.90;0.90;;;28.10;99.90;;;;;;4983127;28;20045;-88
2022/07/12 11:55:56;;;;;;;1.25;1.10;;;28.30;99.90;;;;;;4984395;28;20180;-90
2022/07/12 11:58:23;;;;;;;1.33;1.23;;;28.50;99.90;;;;;;4967152;28;20065;-89
2022/07/12 12:00:49;;;;;;;1.50;1.40;;;28.40;99.90;;;;;;4967138;28;20049;-89
2022/07/12 12:03:16;;;;;;;2.08;1.40;;;28.30;99.90;;;;;;4967368;28;20466;-87
2022/07/12 12:05:42;;;;;;;1.70;1.60;;;28.70;99.90;;;;;;4983049;28;20046;-90
2022/07/12 12:08:09;;;;;;;3.05;1.17;;;28.50;99.90;;;;;;4950640;28;20045;-88
2022/07/12 12:10:35;;;;;;;1.17;1.00;;;28.50;99.90;;;;;;4983182;28;20533;-91
2022/07/12 12:13:01;;;;;;;1.02;0.88;;;28.40;99.90;;;;;;4966551;28;20136;-88
2022/07/12 12:15:33;;;;;;;1.25;1.15;;;28.70;99.90;;;;;;4951247;28;20050;-89
2022/07/12 12:17:59;;;;;;;1.23;1.13;;;28.90;99.90;;;;;;4966594;28;20132;-91
2022/07/12 12:20:56;;;;;;;2.20;1.40;;;29.00;99.90;;;;;;4966294;28;20057;-90
2022/07/12 12:23:23;;;;;;;1.65;1.20;;;28.80;99.90;;;;;;4965641;28;20050;-88
2022/07/12 12:25:49;;;;;;;2.10;1.33;;;29.30;99.90;;;;;;4983318;28;20053;-91
2022/07/12 12:28:15;;;;;;;1.20;1.10;;;29.60;99.90;;;;;;4982243;28;20492;-89
2022/07/12 12:30:51;;;;;;;1.20;1.20;;;29.40;99.90;;;;;;4982387;28;20056;-88
2022/07/12 12:33:39;;;;;;;1.70;1.30;;;29.40;99.90;;;;;;4965925;28;20396;-89
2022/07/12 12:36:13;;;;;;;1.40;1.10;;;29.00;99.90;;;;;;4967235;28;20414;-89
2022/07/12 12:38:38;;;;;;;1.05;1.05;;;29.10;99.90;;;;;;4982133;28;20046;-89
2022/07/12 12:41:05;;;;;;;1.10;1.10;;;29.10;99.90;;;;;;4983121;28;20113;-90
2022/07/12 12:43:32;;;;;;;1.10;1.10;;;29.10;99.90;;;;;;4982639;28;20050;-90
2022/07/12 12:46:01;;;;;;;2.70;1.10;;;29.10;99.90;;;;;;4966572;28;20054;-90
2022/07/12 12:48:28;;;;;;;0.85;0.85;;;29.00;99.90;;;;;;4965523;28;20095;-90
2022/07/12 12:51:03;;;;;;;0.90;0.90;;;29.00;99.90;;;;;;4949907;28;20056;-90
2022/07/12 12:53:28;;;;;;;1.63;0.90;;;29.10;99.90;;;;;;4982525;28;20041;-91
2022/07/12 12:55:55;;;;;;;1.58;0.90;;;29.30;99.90;;;;;;4966259;28;20048;-90
2022/07/12 12:58:21;;;;;;;0.98;0.80;;;29.00;99.90;;;;;;4965754;28;20041;-90
2022/07/12 13:00:51;;;;;;;1.02;1.02;;;29.00;99.90;;;;;;4949546;28;20058;-91